sensor_id;sensor_type;location;lat;lon;timestamp;pressure;altitude;pressure_sealevel;temperature;humidity
64189;BME280;50493;50.970;10.082;2024-02-23T00:01:02;96581.38;;;7.76;79.87
64189;BME280;50493;50.970;10.082;2024-02-23T00:03:29;96601.75;;;8.00;71.79
64189;BME280;50493;50.970;10.082;2024-02-23T00:05:54;96601.84;;;7.51;82.52
64189;BME280;50493;50.970;10.082;2024-02-23T00:08:19;96596.66;;;7.83;80.31
64189;BME280;50493;50.970;10.082;2024-02-23T00:10:45;96600.56;;;8.06;71.96
64189;BME280;50493;50.970;10.082;2024-02-23T00:13:11;96599.41;;;7.48;68.19
64189;BME280;50493;50.970;10.082;2024-02-23T00:15:36;96606.09;;;7.84;79.22
64189;BME280;50493;50.970;10.082;2024-02-23T00:18:01;96604.91;;;8.05;61.85
64189;BME280;50493;50.970;10.082;2024-02-23T00:20:30;96624.63;;;8.09;73.56
64189;BME280;50493;50.970;10.082;2024-02-23T00:22:55;96630.00;;;7.90;76.14
64189;BME280;50493;50.970;10.082;2024-02-23T00:25:21;96632.47;;;7.77;78.15
64189;BME280;50493;50.970;10.082;2024-02-23T00:27:46;96638.66;;;7.59;75.66
64189;BME280;50493;50.970;10.082;2024-02-23T00:30:13;96634.09;;;7.47;70.42
64189;BME280;50493;50.970;10.082;2024-02-23T00:32:39;96644.72;;;7.59;79.00
64189;BME280;50493;50.970;10.082;2024-02-23T00:35:05;96659.22;;;7.64;79.67
64189;BME280;50493;50.970;10.082;2024-02-23T00:37:31;96659.97;;;7.66;79.52
64189;BME280;50493;50.970;10.082;2024-02-23T00:40:01;96679.28;;;7.93;76.14
64189;BME280;50493;50.970;10.082;2024-02-23T00:42:26;96690.88;;;8.20;73.11
64189;BME280;50493;50.970;10.082;2024-02-23T00:44:51;96691.88;;;7.85;75.20
64189;BME280;50493;50.970;10.082;2024-02-23T00:47:16;96710.78;;;7.55;66.63
64189;BME280;50493;50.970;10.082;2024-02-23T00:49:42;96690.84;;;7.88;67.75
64189;BME280;50493;50.970;10.082;2024-02-23T00:52:07;96699.44;;;8.22;63.05
64189;BME280;50493;50.970;10.082;2024-02-23T00:54:34;96699.94;;;8.12;69.10
64189;BME280;50493;50.970;10.082;2024-02-23T00:57:00;96687.50;;;8.34;68.25
64189;BME280;50493;50.970;10.082;2024-02-23T00:59:25;96705.88;;;8.31;69.09
64189;BME280;50493;50.970;10.082;2024-02-23T01:01:50;96734.34;;;8.50;60.73
64189;BME280;50493;50.970;10.082;2024-02-23T01:04:16;96745.41;;;8.05;68.87
64189;BME280;50493;50.970;10.082;2024-02-23T01:06:41;96762.53;;;7.93;76.54
64189;BME280;50493;50.970;10.082;2024-02-23T01:09:06;96758.69;;;8.17;72.55
64189;BME280;50493;50.970;10.082;2024-02-23T01:11:33;96763.03;;;8.00;66.58
64189;BME280;50493;50.970;10.082;2024-02-23T01:13:58;96758.09;;;8.11;68.93
64189;BME280;50493;50.970;10.082;2024-02-23T01:16:24;96772.72;;;8.30;66.95
64189;BME280;50493;50.970;10.082;2024-02-23T01:18:49;96790.50;;;7.72;69.87
64189;BME280;50493;50.970;10.082;2024-02-23T01:21:15;96805.28;;;7.54;75.26
64189;BME280;50493;50.970;10.082;2024-02-23T01:23:40;96795.03;;;7.34;79.37
64189;BME280;50493;50.970;10.082;2024-02-23T01:26:06;96784.88;;;7.47;77.93
64189;BME280;50493;50.970;10.082;2024-02-23T01:28:32;96794.34;;;7.48;78.90
64189;BME280;50493;50.970;10.082;2024-02-23T01:30:58;96797.47;;;7.54;66.79
64189;BME280;50493;50.970;10.082;2024-02-23T01:33:23;96788.06;;;8.03;62.75
64189;BME280;50493;50.970;10.082;2024-02-23T01:35:49;96794.09;;;8.03;55.43
64189;BME280;50493;50.970;10.082;2024-02-23T01:38:15;96820.63;;;7.41;68.83
64189;BME280;50493;50.970;10.082;2024-02-23T01:40:45;96820.31;;;7.30;73.74
64189;BME280;50493;50.970;10.082;2024-02-23T01:43:11;96834.97;;;7.14;76.45
64189;BME280;50493;50.970;10.082;2024-02-23T01:45:37;96846.34;;;7.11;72.79
64189;BME280;50493;50.970;10.082;2024-02-23T01:48:03;96842.50;;;6.64;78.07
64189;BME280;50493;50.970;10.082;2024-02-23T01:50:29;96851.75;;;6.70;69.56
64189;BME280;50493;50.970;10.082;2024-02-23T01:52:57;96849.00;;;6.92;66.06
64189;BME280;50493;50.970;10.082;2024-02-23T01:55:25;96877.13;;;6.63;78.54
64189;BME280;50493;50.970;10.082;2024-02-23T01:57:50;96871.38;;;6.75;79.77
64189;BME280;50493;50.970;10.082;2024-02-23T02:00:17;96882.31;;;6.82;80.13
64189;BME280;50493;50.970;10.082;2024-02-23T02:02:44;96880.31;;;7.06;69.25
64189;BME280;50493;50.970;10.082;2024-02-23T02:05:10;96872.50;;;7.25;76.05
64189;BME280;50493;50.970;10.082;2024-02-23T02:07:36;96879.31;;;6.91;78.76
64189;BME280;50493;50.970;10.082;2024-02-23T02:10:02;96889.34;;;6.99;79.78
64189;BME280;50493;50.970;10.082;2024-02-23T02:12:29;96889.63;;;7.12;75.05
64189;BME280;50493;50.970;10.082;2024-02-23T02:14:54;96881.59;;;7.17;71.00
64189;BME280;50493;50.970;10.082;2024-02-23T02:17:21;96879.75;;;7.19;76.05
64189;BME280;50493;50.970;10.082;2024-02-23T02:19:48;96883.34;;;7.53;76.42
64189;BME280;50493;50.970;10.082;2024-02-23T02:22:13;96881.50;;;7.90;65.07
64189;BME280;50493;50.970;10.082;2024-02-23T02:24:39;96885.28;;;8.18;68.25
64189;BME280;50493;50.970;10.082;2024-02-23T02:27:06;96885.00;;;7.89;70.37
64189;BME280;50493;50.970;10.082;2024-02-23T02:29:31;96898.41;;;7.64;73.97
64189;BME280;50493;50.970;10.082;2024-02-23T02:31:57;96910.41;;;7.49;77.18
64189;BME280;50493;50.970;10.082;2024-02-23T02:34:22;96911.03;;;7.89;72.43
64189;BME280;50493;50.970;10.082;2024-02-23T02:36:49;96909.00;;;8.29;54.51
64189;BME280;50493;50.970;10.082;2024-02-23T02:39:16;96904.97;;;8.06;53.06
64189;BME280;50493;50.970;10.082;2024-02-23T02:41:41;96903.19;;;8.24;68.58
64189;BME280;50493;50.970;10.082;2024-02-23T02:44:07;96902.06;;;7.94;73.00
64189;BME280;50493;50.970;10.082;2024-02-23T02:46:34;96913.41;;;8.27;66.71
64189;BME280;50493;50.970;10.082;2024-02-23T02:49:00;96917.72;;;8.10;55.15
64189;BME280;50493;50.970;10.082;2024-02-23T02:51:25;96935.31;;;7.35;70.76
64189;BME280;50493;50.970;10.082;2024-02-23T02:53:52;96960.78;;;6.70;79.19
64189;BME280;50493;50.970;10.082;2024-02-23T02:56:17;96952.75;;;6.36;81.45
64189;BME280;50493;50.970;10.082;2024-02-23T02:58:42;96975.25;;;6.15;82.39
64189;BME280;50493;50.970;10.082;2024-02-23T03:01:08;96977.84;;;5.95;83.26
64189;BME280;50493;50.970;10.082;2024-02-23T03:03:34;97004.25;;;6.25;78.39
64189;BME280;50493;50.970;10.082;2024-02-23T03:05:59;97015.06;;;6.14;79.06
64189;BME280;50493;50.970;10.082;2024-02-23T03:08:24;97017.59;;;5.95;74.95
64189;BME280;50493;50.970;10.082;2024-02-23T03:10:52;97022.78;;;5.95;81.41
64189;BME280;50493;50.970;10.082;2024-02-23T03:13:17;97010.44;;;5.80;83.72
64189;BME280;50493;50.970;10.082;2024-02-23T03:15:43;97002.16;;;6.13;68.70
64189;BME280;50493;50.970;10.082;2024-02-23T03:18:08;96999.19;;;6.22;73.51
64189;BME280;50493;50.970;10.082;2024-02-23T03:20:35;97011.31;;;6.21;78.68
64189;BME280;50493;50.970;10.082;2024-02-23T03:23:00;97010.78;;;6.13;80.19
64189;BME280;50493;50.970;10.082;2024-02-23T03:25:28;97009.16;;;5.90;72.00
64189;BME280;50493;50.970;10.082;2024-02-23T03:27:55;97021.56;;;6.24;76.99
64189;BME280;50493;50.970;10.082;2024-02-23T03:30:20;97014.31;;;6.33;78.45
64189;BME280;50493;50.970;10.082;2024-02-23T03:32:46;97012.44;;;6.36;78.17
64189;BME280;50493;50.970;10.082;2024-02-23T03:35:12;97025.13;;;6.42;65.50
64189;BME280;50493;50.970;10.082;2024-02-23T03:37:38;97034.59;;;6.64;68.40
64189;BME280;50493;50.970;10.082;2024-02-23T03:40:04;97034.22;;;6.32;66.92
64189;BME280;50493;50.970;10.082;2024-02-23T03:42:30;97039.78;;;6.64;63.27
64189;BME280;50493;50.970;10.082;2024-02-23T03:44:56;97044.00;;;6.67;71.29
64189;BME280;50493;50.970;10.082;2024-02-23T03:47:22;97044.59;;;6.32;73.42
64189;BME280;50493;50.970;10.082;2024-02-23T03:49:47;97045.13;;;6.61;68.24
64189;BME280;50493;50.970;10.082;2024-02-23T03:52:12;97053.69;;;6.42;62.64
64189;BME280;50493;50.970;10.082;2024-02-23T03:54:38;97056.50;;;6.16;67.98
64189;BME280;50493;50.970;10.082;2024-02-23T03:57:04;97066.22;;;6.10;71.95
64189;BME280;50493;50.970;10.082;2024-02-23T03:59:29;97057.22;;;5.76;76.50
64189;BME280;50493;50.970;10.082;2024-02-23T04:01:56;97065.50;;;5.86;75.89
64189;BME280;50493;50.970;10.082;2024-02-23T04:04:21;97072.06;;;6.16;63.40
64189;BME280;50493;50.970;10.082;2024-02-23T04:06:47;97077.75;;;6.03;70.31
64189;BME280;50493;50.970;10.082;2024-02-23T04:09:12;97091.28;;;6.32;76.31
64189;BME280;50493;50.970;10.082;2024-02-23T04:11:38;97094.00;;;6.08;75.60
64189;BME280;50493;50.970;10.082;2024-02-23T04:14:03;97095.56;;;6.13;70.47
64189;BME280;50493;50.970;10.082;2024-02-23T04:16:30;97094.88;;;6.30;61.94
64189;BME280;50493;50.970;10.082;2024-02-23T04:18:57;97095.41;;;6.16;70.72
64189;BME280;50493;50.970;10.082;2024-02-23T04:21:24;97110.63;;;6.25;74.45
64189;BME280;50493;50.970;10.082;2024-02-23T04:23:50;97108.94;;;6.02;60.47
64189;BME280;50493;50.970;10.082;2024-02-23T04:26:15;97113.78;;;6.11;69.79
64189;BME280;50493;50.970;10.082;2024-02-23T04:28:41;97123.06;;;6.17;72.35
64189;BME280;50493;50.970;10.082;2024-02-23T04:31:07;97116.53;;;6.06;76.61
64189;BME280;50493;50.970;10.082;2024-02-23T04:33:34;97115.81;;;6.25;68.26
64189;BME280;50493;50.970;10.082;2024-02-23T04:36:00;97118.56;;;6.42;76.92
64189;BME280;50493;50.970;10.082;2024-02-23T04:38:26;97122.84;;;6.64;73.14
64189;BME280;50493;50.970;10.082;2024-02-23T04:40:51;97118.47;;;6.66;75.50
64189;BME280;50493;50.970;10.082;2024-02-23T04:43:16;97120.66;;;6.55;73.00
64189;BME280;50493;50.970;10.082;2024-02-23T04:45:42;97124.41;;;6.48;77.41
64189;BME280;50493;50.970;10.082;2024-02-23T04:48:07;97128.19;;;5.96;79.94
64189;BME280;50493;50.970;10.082;2024-02-23T04:50:32;97133.09;;;6.47;77.88
64189;BME280;50493;50.970;10.082;2024-02-23T04:52:59;97135.91;;;6.42;78.19
64189;BME280;50493;50.970;10.082;2024-02-23T04:55:24;97141.59;;;6.30;78.92
64189;BME280;50493;50.970;10.082;2024-02-23T04:57:50;97152.44;;;6.60;77.80
64189;BME280;50493;50.970;10.082;2024-02-23T05:00:15;97147.09;;;6.85;71.16
64189;BME280;50493;50.970;10.082;2024-02-23T05:02:41;97162.31;;;6.72;76.31
64189;BME280;50493;50.970;10.082;2024-02-23T05:05:07;97165.44;;;7.22;68.15
64189;BME280;50493;50.970;10.082;2024-02-23T05:07:33;97167.59;;;6.91;74.06
64189;BME280;50493;50.970;10.082;2024-02-23T05:10:00;97184.56;;;6.80;73.81
64189;BME280;50493;50.970;10.082;2024-02-23T05:12:26;97177.47;;;6.40;74.60
64189;BME280;50493;50.970;10.082;2024-02-23T05:14:51;97173.06;;;6.85;65.97
64189;BME280;50493;50.970;10.082;2024-02-23T05:17:17;97189.69;;;6.81;68.00
64189;BME280;50493;50.970;10.082;2024-02-23T05:19:42;97190.34;;;6.64;73.45
64189;BME280;50493;50.970;10.082;2024-02-23T05:22:08;97198.06;;;6.88;65.17
64189;BME280;50493;50.970;10.082;2024-02-23T05:24:33;97200.34;;;6.53;67.43
64189;BME280;50493;50.970;10.082;2024-02-23T05:26:59;97181.41;;;6.71;57.37
64189;BME280;50493;50.970;10.082;2024-02-23T05:29:27;97192.75;;;6.26;62.94
64189;BME280;50493;50.970;10.082;2024-02-23T05:31:53;97193.72;;;6.01;61.55
64189;BME280;50493;50.970;10.082;2024-02-23T05:34:18;97186.03;;;5.98;72.51
64189;BME280;50493;50.970;10.082;2024-02-23T05:36:44;97177.41;;;5.75;71.60
64189;BME280;50493;50.970;10.082;2024-02-23T05:39:11;97171.81;;;6.08;61.41
64189;BME280;50493;50.970;10.082;2024-02-23T05:41:37;97176.88;;;6.12;72.47
64189;BME280;50493;50.970;10.082;2024-02-23T05:44:04;97186.88;;;6.21;67.63
64189;BME280;50493;50.970;10.082;2024-02-23T05:46:31;97200.16;;;6.35;64.50
64189;BME280;50493;50.970;10.082;2024-02-23T05:48:57;97192.47;;;6.34;63.59
64189;BME280;50493;50.970;10.082;2024-02-23T05:51:22;97197.56;;;6.35;54.49
64189;BME280;50493;50.970;10.082;2024-02-23T05:53:48;97197.63;;;6.12;54.85
64189;BME280;50493;50.970;10.082;2024-02-23T05:56:13;97191.56;;;5.89;55.23
64189;BME280;50493;50.970;10.082;2024-02-23T05:58:38;97192.56;;;5.85;56.96
64189;BME280;50493;50.970;10.082;2024-02-23T06:01:06;97195.63;;;5.72;60.97
64189;BME280;50493;50.970;10.082;2024-02-23T06:03:32;97191.44;;;5.45;56.69
64189;BME280;50493;50.970;10.082;2024-02-23T06:05:58;97189.31;;;5.56;58.67
64189;BME280;50493;50.970;10.082;2024-02-23T06:08:23;97181.78;;;5.96;59.50
64189;BME280;50493;50.970;10.082;2024-02-23T06:10:49;97198.16;;;5.74;57.30
64189;BME280;50493;50.970;10.082;2024-02-23T06:13:14;97198.44;;;5.90;56.32
64189;BME280;50493;50.970;10.082;2024-02-23T06:15:39;97190.09;;;6.05;61.67
64189;BME280;50493;50.970;10.082;2024-02-23T06:18:07;97188.31;;;5.84;59.35
64189;BME280;50493;50.970;10.082;2024-02-23T06:20:32;97183.06;;;6.07;64.77
64189;BME280;50493;50.970;10.082;2024-02-23T06:22:58;97187.97;;;6.15;66.38
64189;BME280;50493;50.970;10.082;2024-02-23T06:25:23;97195.03;;;6.12;57.86
64189;BME280;50493;50.970;10.082;2024-02-23T06:27:48;97206.63;;;6.25;66.22
64189;BME280;50493;50.970;10.082;2024-02-23T06:30:14;97213.66;;;6.21;57.11
64189;BME280;50493;50.970;10.082;2024-02-23T06:32:39;97223.22;;;6.21;64.71
64189;BME280;50493;50.970;10.082;2024-02-23T06:35:07;97226.47;;;6.04;56.86
64189;BME280;50493;50.970;10.082;2024-02-23T06:37:32;97242.28;;;5.72;54.96
64189;BME280;50493;50.970;10.082;2024-02-23T06:39:58;97245.34;;;5.84;56.40
64189;BME280;50493;50.970;10.082;2024-02-23T06:42:23;97253.06;;;5.85;58.83
64189;BME280;50493;50.970;10.082;2024-02-23T06:44:49;97249.13;;;5.75;64.04
64189;BME280;50493;50.970;10.082;2024-02-23T06:47:14;97246.88;;;5.89;62.58
64189;BME280;50493;50.970;10.082;2024-02-23T06:49:41;97253.72;;;6.14;55.94
64189;BME280;50493;50.970;10.082;2024-02-23T06:52:07;97261.97;;;6.02;60.67
64189;BME280;50493;50.970;10.082;2024-02-23T06:54:33;97269.25;;;5.92;55.61
64189;BME280;50493;50.970;10.082;2024-02-23T06:56:58;97272.63;;;5.94;58.82
64189;BME280;50493;50.970;10.082;2024-02-23T06:59:23;97281.66;;;5.84;57.89
64189;BME280;50493;50.970;10.082;2024-02-23T07:01:49;97288.66;;;5.56;58.15
64189;BME280;50493;50.970;10.082;2024-02-23T07:04:15;97294.31;;;5.68;57.48
64189;BME280;50493;50.970;10.082;2024-02-23T07:06:41;97309.94;;;5.66;64.46
64189;BME280;50493;50.970;10.082;2024-02-23T07:09:07;97317.41;;;5.74;56.76
64189;BME280;50493;50.970;10.082;2024-02-23T07:11:33;97302.16;;;5.66;59.96
64189;BME280;50493;50.970;10.082;2024-02-23T07:13:58;97309.38;;;5.82;62.80
64189;BME280;50493;50.970;10.082;2024-02-23T07:16:24;97316.38;;;5.54;65.22
64189;BME280;50493;50.970;10.082;2024-02-23T07:18:49;97304.50;;;5.72;56.26
64189;BME280;50493;50.970;10.082;2024-02-23T07:21:17;97310.50;;;5.98;55.38
64189;BME280;50493;50.970;10.082;2024-02-23T07:23:42;97316.59;;;5.73;60.52
64189;BME280;50493;50.970;10.082;2024-02-23T07:26:09;97319.06;;;5.76;58.25
64189;BME280;50493;50.970;10.082;2024-02-23T07:28:34;97325.97;;;6.01;55.60
64189;BME280;50493;50.970;10.082;2024-02-23T07:31:00;97324.78;;;6.10;55.00
64189;BME280;50493;50.970;10.082;2024-02-23T07:33:25;97323.84;;;6.13;54.25
64189;BME280;50493;50.970;10.082;2024-02-23T07:35:50;97331.25;;;5.98;54.80
64189;BME280;50493;50.970;10.082;2024-02-23T07:38:16;97337.00;;;5.83;54.09
64189;BME280;50493;50.970;10.082;2024-02-23T07:40:43;97342.00;;;5.87;52.92
64189;BME280;50493;50.970;10.082;2024-02-23T07:43:10;97338.69;;;5.84;62.64
64189;BME280;50493;50.970;10.082;2024-02-23T07:45:39;97330.75;;;5.88;62.08
64189;BME280;50493;50.970;10.082;2024-02-23T07:48:04;97335.34;;;6.05;57.74
64189;BME280;50493;50.970;10.082;2024-02-23T07:50:30;97338.03;;;6.26;56.43
64189;BME280;50493;50.970;10.082;2024-02-23T07:52:55;97342.50;;;6.22;55.68
64189;BME280;50493;50.970;10.082;2024-02-23T07:55:20;97347.63;;;6.24;58.64
64189;BME280;50493;50.970;10.082;2024-02-23T07:57:47;97345.41;;;6.60;55.52
64189;BME280;50493;50.970;10.082;2024-02-23T08:00:14;97352.53;;;6.08;62.03
64189;BME280;50493;50.970;10.082;2024-02-23T08:02:40;97341.53;;;6.01;60.94
64189;BME280;50493;50.970;10.082;2024-02-23T08:05:06;97349.88;;;6.57;55.13
64189;BME280;50493;50.970;10.082;2024-02-23T08:07:31;97346.56;;;6.75;57.23
64189;BME280;50493;50.970;10.082;2024-02-23T08:09:57;97354.56;;;6.47;63.30
64189;BME280;50493;50.970;10.082;2024-02-23T08:12:22;97353.59;;;6.50;61.41
64189;BME280;50493;50.970;10.082;2024-02-23T08:14:48;97358.69;;;6.53;58.89
64189;BME280;50493;50.970;10.082;2024-02-23T08:17:16;97362.53;;;6.42;55.81
64189;BME280;50493;50.970;10.082;2024-02-23T08:19:42;97356.78;;;6.58;56.30
64189;BME280;50493;50.970;10.082;2024-02-23T08:22:07;97360.63;;;6.70;52.44
64189;BME280;50493;50.970;10.082;2024-02-23T08:24:32;97362.66;;;6.39;52.71
64189;BME280;50493;50.970;10.082;2024-02-23T08:26:58;97359.53;;;6.30;59.82
64189;BME280;50493;50.970;10.082;2024-02-23T08:29:23;97363.44;;;6.18;60.80
64189;BME280;50493;50.970;10.082;2024-02-23T08:31:48;97362.81;;;5.86;56.02
64189;BME280;50493;50.970;10.082;2024-02-23T08:34:15;97363.16;;;6.25;53.28
64189;BME280;50493;50.970;10.082;2024-02-23T08:36:42;97364.38;;;6.15;53.77
64189;BME280;50493;50.970;10.082;2024-02-23T08:39:08;97369.06;;;6.53;62.40
64189;BME280;50493;50.970;10.082;2024-02-23T08:41:34;97371.66;;;6.53;54.39
64189;BME280;50493;50.970;10.082;2024-02-23T08:43:59;97357.13;;;6.49;58.20
64189;BME280;50493;50.970;10.082;2024-02-23T08:46:24;97372.22;;;6.61;59.83
64189;BME280;50493;50.970;10.082;2024-02-23T08:48:50;97372.16;;;6.39;54.56
64189;BME280;50493;50.970;10.082;2024-02-23T08:51:16;97361.22;;;6.76;54.01
64189;BME280;50493;50.970;10.082;2024-02-23T08:53:42;97361.50;;;6.92;60.19
64189;BME280;50493;50.970;10.082;2024-02-23T08:56:07;97360.56;;;7.16;51.45
64189;BME280;50493;50.970;10.082;2024-02-23T08:58:33;97358.78;;;7.18;58.15
64189;BME280;50493;50.970;10.082;2024-02-23T09:00:58;97365.50;;;7.01;49.74
64189;BME280;50493;50.970;10.082;2024-02-23T09:03:24;97377.38;;;6.85;51.61
64189;BME280;50493;50.970;10.082;2024-02-23T09:05:49;97369.34;;;6.91;52.67
64189;BME280;50493;50.970;10.082;2024-02-23T09:08:16;97364.63;;;6.78;50.46
64189;BME280;50493;50.970;10.082;2024-02-23T09:10:42;97357.00;;;7.18;52.96
64189;BME280;50493;50.970;10.082;2024-02-23T09:13:07;97350.97;;;7.40;49.74
64189;BME280;50493;50.970;10.082;2024-02-23T09:15:33;97355.72;;;7.51;52.79
64189;BME280;50493;50.970;10.082;2024-02-23T09:17:58;97353.06;;;7.30;54.83
64189;BME280;50493;50.970;10.082;2024-02-23T09:20:23;97348.06;;;7.48;50.14
64189;BME280;50493;50.970;10.082;2024-02-23T09:22:49;97340.25;;;7.68;54.90
64189;BME280;50493;50.970;10.082;2024-02-23T09:25:15;97349.63;;;7.52;53.62
64189;BME280;50493;50.970;10.082;2024-02-23T09:27:41;97350.84;;;7.21;56.86
64189;BME280;50493;50.970;10.082;2024-02-23T09:30:10;97353.31;;;7.67;51.28
64189;BME280;50493;50.970;10.082;2024-02-23T09:32:39;97343.50;;;7.73;52.87
64189;BME280;50493;50.970;10.082;2024-02-23T09:35:05;97348.44;;;7.79;51.05
64189;BME280;50493;50.970;10.082;2024-02-23T09:37:31;97353.13;;;7.51;54.51
64189;BME280;50493;50.970;10.082;2024-02-23T09:39:57;97346.81;;;7.56;48.53
64189;BME280;50493;50.970;10.082;2024-02-23T09:42:23;97355.75;;;7.06;57.89
64189;BME280;50493;50.970;10.082;2024-02-23T09:44:58;97364.28;;;6.88;48.85
64189;BME280;50493;50.970;10.082;2024-02-23T09:47:24;97359.44;;;7.01;56.31
64189;BME280;50493;50.970;10.082;2024-02-23T09:49:51;97372.16;;;6.85;51.80
64189;BME280;50493;50.970;10.082;2024-02-23T09:52:18;97366.91;;;6.86;50.14
64189;BME280;50493;50.970;10.082;2024-02-23T09:54:45;97369.09;;;6.75;52.65
64189;BME280;50493;50.970;10.082;2024-02-23T09:57:10;97369.28;;;6.47;50.39
64189;BME280;50493;50.970;10.082;2024-02-23T09:59:37;97362.09;;;6.77;49.90
64189;BME280;50493;50.970;10.082;2024-02-23T10:02:07;97361.63;;;6.89;50.22
64189;BME280;50493;50.970;10.082;2024-02-23T10:04:34;97363.53;;;7.06;49.19
64189;BME280;50493;50.970;10.082;2024-02-23T10:06:59;97362.31;;;6.93;50.21
64189;BME280;50493;50.970;10.082;2024-02-23T10:09:25;97357.38;;;7.09;50.65
64189;BME280;50493;50.970;10.082;2024-02-23T10:11:52;97365.91;;;7.13;53.34
64189;BME280;50493;50.970;10.082;2024-02-23T10:14:17;97361.44;;;7.59;47.78
64189;BME280;50493;50.970;10.082;2024-02-23T10:16:44;97372.13;;;7.08;49.15
64189;BME280;50493;50.970;10.082;2024-02-23T10:19:09;97364.63;;;7.23;49.22
64189;BME280;50493;50.970;10.082;2024-02-23T10:21:35;97372.38;;;7.24;49.34
64189;BME280;50493;50.970;10.082;2024-02-23T10:24:00;97368.38;;;6.93;48.70
64189;BME280;50493;50.970;10.082;2024-02-23T10:26:26;97375.03;;;7.23;55.72
64189;BME280;50493;50.970;10.082;2024-02-23T10:28:52;97390.84;;;7.17;47.47
64189;BME280;50493;50.970;10.082;2024-02-23T10:31:18;97389.47;;;7.30;49.08
64189;BME280;50493;50.970;10.082;2024-02-23T10:33:45;97387.59;;;7.34;57.09
64189;BME280;50493;50.970;10.082;2024-02-23T10:36:15;97385.22;;;7.27;50.28
64189;BME280;50493;50.970;10.082;2024-02-23T10:38:44;97387.72;;;7.53;46.48
64189;BME280;50493;50.970;10.082;2024-02-23T10:41:11;97390.53;;;7.02;46.78
64189;BME280;50493;50.970;10.082;2024-02-23T10:43:41;97394.28;;;6.95;49.86
64189;BME280;50493;50.970;10.082;2024-02-23T10:46:09;97387.47;;;6.92;48.77
64189;BME280;50493;50.970;10.082;2024-02-23T10:48:38;97382.38;;;7.11;48.32
64189;BME280;50493;50.970;10.082;2024-02-23T10:51:06;97395.75;;;7.24;47.66
64189;BME280;50493;50.970;10.082;2024-02-23T10:53:33;97407.19;;;7.42;47.74
64189;BME280;50493;50.970;10.082;2024-02-23T10:56:00;97414.84;;;7.01;48.26
64189;BME280;50493;50.970;10.082;2024-02-23T10:58:26;97413.06;;;6.80;48.25
64189;BME280;50493;50.970;10.082;2024-02-23T11:00:52;97409.94;;;7.16;50.89
64189;BME280;50493;50.970;10.082;2024-02-23T11:03:19;97416.03;;;7.59;57.48
64189;BME280;50493;50.970;10.082;2024-02-23T11:05:47;97418.78;;;7.34;50.72
64189;BME280;50493;50.970;10.082;2024-02-23T11:08:16;97424.34;;;7.24;46.92
64189;BME280;50493;50.970;10.082;2024-02-23T11:10:42;97409.41;;;7.07;48.48
64189;BME280;50493;50.970;10.082;2024-02-23T11:13:08;97419.31;;;7.20;57.05
64189;BME280;50493;50.970;10.082;2024-02-23T11:15:33;97416.47;;;7.26;56.87
64189;BME280;50493;50.970;10.082;2024-02-23T11:18:21;97419.84;;;7.28;51.26
64189;BME280;50493;50.970;10.082;2024-02-23T11:20:54;97414.66;;;7.28;48.58
64189;BME280;50493;50.970;10.082;2024-02-23T11:23:21;97417.19;;;7.29;46.20
64189;BME280;50493;50.970;10.082;2024-02-23T11:25:58;97406.31;;;7.20;52.12
64189;BME280;50493;50.970;10.082;2024-02-23T11:28:24;97410.69;;;7.19;46.33
64189;BME280;50493;50.970;10.082;2024-02-23T11:30:50;97401.50;;;7.33;47.99
64189;BME280;50493;50.970;10.082;2024-02-23T11:33:25;97401.06;;;6.99;49.09
64189;BME280;50493;50.970;10.082;2024-02-23T11:35:51;97397.91;;;7.13;46.66
64189;BME280;50493;50.970;10.082;2024-02-23T11:38:18;97401.66;;;6.84;46.62
64189;BME280;50493;50.970;10.082;2024-02-23T11:40:47;97411.72;;;6.69;48.10
64189;BME280;50493;50.970;10.082;2024-02-23T11:43:13;97408.00;;;7.21;47.76
64189;BME280;50493;50.970;10.082;2024-02-23T11:45:40;97404.03;;;7.34;53.45
64189;BME280;50493;50.970;10.082;2024-02-23T11:48:07;97392.22;;;7.25;50.02
64189;BME280;50493;50.970;10.082;2024-02-23T11:50:32;97390.63;;;7.45;47.61
64189;BME280;50493;50.970;10.082;2024-02-23T11:52:59;97397.50;;;7.46;46.27
64189;BME280;50493;50.970;10.082;2024-02-23T11:55:26;97390.22;;;7.32;45.64
64189;BME280;50493;50.970;10.082;2024-02-23T11:57:53;97388.56;;;7.31;51.52
64189;BME280;50493;50.970;10.082;2024-02-23T12:00:18;97366.53;;;7.83;47.10
64189;BME280;50493;50.970;10.082;2024-02-23T12:02:44;97370.53;;;7.90;52.83
64189;BME280;50493;50.970;10.082;2024-02-23T12:05:13;97372.28;;;7.69;49.39
64189;BME280;50493;50.970;10.082;2024-02-23T12:07:40;97360.66;;;7.98;46.09
64189;BME280;50493;50.970;10.082;2024-02-23T12:10:06;97363.41;;;7.95;44.77
64189;BME280;50493;50.970;10.082;2024-02-23T12:12:32;97359.63;;;8.21;49.16
64189;BME280;50493;50.970;10.082;2024-02-23T12:14:59;97362.84;;;8.07;45.17
64189;BME280;50493;50.970;10.082;2024-02-23T12:17:24;97365.91;;;7.97;45.43
64189;BME280;50493;50.970;10.082;2024-02-23T12:19:57;97370.28;;;8.36;48.99
64189;BME280;50493;50.970;10.082;2024-02-23T12:22:24;97378.34;;;7.90;52.57
64189;BME280;50493;50.970;10.082;2024-02-23T12:24:49;97380.00;;;7.72;47.88
64189;BME280;50493;50.970;10.082;2024-02-23T12:27:16;97379.00;;;7.74;47.04
64189;BME280;50493;50.970;10.082;2024-02-23T12:29:42;97371.84;;;7.59;49.59
64189;BME280;50493;50.970;10.082;2024-02-23T12:32:08;97362.00;;;7.86;46.98
64189;BME280;50493;50.970;10.082;2024-02-23T12:34:34;97366.66;;;8.00;48.07
64189;BME280;50493;50.970;10.082;2024-02-23T12:37:02;97366.13;;;7.71;47.63
64189;BME280;50493;50.970;10.082;2024-02-23T12:39:27;97385.16;;;7.51;58.32
64189;BME280;50493;50.970;10.082;2024-02-23T12:41:52;97368.53;;;7.76;46.35
64189;BME280;50493;50.970;10.082;2024-02-23T12:44:18;97367.16;;;7.88;51.98
64189;BME280;50493;50.970;10.082;2024-02-23T12:46:43;97370.16;;;7.78;51.72
64189;BME280;50493;50.970;10.082;2024-02-23T12:49:10;97366.25;;;7.48;48.04
64189;BME280;50493;50.970;10.082;2024-02-23T12:51:35;97365.84;;;7.36;48.35
64189;BME280;50493;50.970;10.082;2024-02-23T12:54:01;97352.59;;;7.63;48.29